Aeroporto :
LOGIN :

Iscrizione | Disclaimer

   EN    FR    IT 

 










Sommario :    VFR   VFR Marginale   IFR   IFR Intensivo   IFR Molto Intensivo
Visibilità : 
Base nubi : 
>= 8 km
>= 3000ft
5 / 8 km
1000 / 3000 ft
1500m / 5 km
500 / 1000 ft
800 / 1500m
200 / 500 ft
< 800m
< 200 ft
Simboli :   Temporali  Nebbia  Neve Forte  Precipitazioni Forti  Vento > 20 kt
SIGMETs :   Varie  Temporali  Ghiacco  Turbolenza  Onda orograficha  Ceneri Vulcaniche






- Altitudine del aeroporto : 408 ft
- Codice IATA : SOB


LHSM - Sarmellek Balaton

ULTIMO METAR :
  • 211015Z AUTO VRB03KT 5000 BR NCD 02/02 Q1044 NOSIG

METARs OBSOLETI :
  • 210945Z AUTO 09003KT 050V110 2900 BR NCD M00/M00 Q1045 BECMG 7000 NSW NSC
  • 210915Z AUTO VRB02KT 2100 BR BKN009 M01/M01 Q1045 BECMG 7000 NSW NSC
  • 210845Z AUTO 00000KT 2600 BR OVC009 M02/M02 Q1045 TEMPO 3500 BKN015 BECMG FM0930 7000 NSW NSC
  • 210815Z AUTO 00000KT 2500 BR OVC008 M02/M02 Q1045 TEMPO 3500 BKN015 BECMG FM0930 7000 NSW NSC
  • 210745Z AUTO 06001KT 2100 BR OVC006 M03/M03 Q1045 TEMPO 3000 OVC002

TAF TAF LHSM
Valido dal 21 a 09 ore il 21 a 18 ore UTC


210815Z 2109/2118 VRB01KT 1500 BR OVC005
BECMG 2109/2111 8000 NSW NSC
BECMG 2115/2117 0600 FZFG
PROB30 2116/2118 0150 FZFG VV002



MetMap, La meteo Aeronautica in un colpo d'occhio ! - Copyright ORBIFLY Dicembre 2007 - Disclaimer

ORBIFLY MET'MAP TEAM :

Programmazione e sviluppo : Alexandra Zaïnal
Concezione : Baudouin d'Aumeries
Aiuto per la programmazione : Marc-Olivier Méhu
Supporto tecnico e logistico : Manuel Goepfert
Aiuto per la traduzione : Arnaldo La Scala

Contatto : metmap@orbifly.com




FONTI E CREDITI :

   NOAA